Marion, IN

3:36 PM EDT on April 28, 2015 (GMT -0400)
Marion Municipal | | Change Station
CLOSE
Current Station
Airport
Location: Marion,
Elevation: 856 ft
Nearby Weather Stations

Elev 856 ft 40.49 °N, 85.68 °W | Updated 21 minutes ago

Clear
Clear
58 °F
Feels Like 58 °F
N
4
Wind Variable Wind from ENE

Today
High -- | Low -- °F
--% Chance of Precip.
Yesterday
High -- | Low -- °F
Precip. -- in
6:46 AM 8:35 PM
Waxing Gibbous, 76% visible
Pressure 30.05 in
Visibility 7.0 miles
Clouds Clear
Dew Point 35 °F
Humidity 42%
Rainfall 0.00 in
Snow Depth Not available.
UV 9 out of 12
Pollen 10.30 out of 12
Air Quality Not available.
Flu Activity Local Activity
METAR KMZZ 281915Z AUTO 06003KT 7SM CLR 14/02 A3005 RMK AO2 T01440015

More Conditions Fewer Conditions

Pressure 30.05 in
Visibility 7.0 miles
Clouds Clear
Dew Point 35 °F
Humidity 42%
Rainfall 0.00 in
Snow Depth Not available.
UV 9 out of 12
Pollen 10.30 out of 12
Air Quality Not available.
Flu Activity Local Activity
METAR KMZZ 281915Z AUTO 06003KT 7SM CLR 14/02 A3005 RMK AO2 T01440015

More Conditions Fewer Conditions

10-Day Weather Forecast

Almanac

Astronomy

Apr. 28, 2015 Rise Set
Actual Time
Civil Twilight
Nautical Twilight
Astronomical Twilight
Moon
Length of Visible Light
Length of Day
Tomorrow will be .
, % of the Moon is Illuminated

Today's Extremes

State Highs State Lows

Community

WunderPhotos

Upload Photos

1,817,739 photos uploaded!

WunderBlogs® & News

Nearby

Air Quality

  Air Quality AQ Index Pollutant
Not available.

Snow Depth

Station Depth Elevation

Earthquake Activity

City Distance Mag. Time & Date
Minimum magnitude displayed is 2.5.

Coastal Water Temperatures

Place Temperature

Stations

Nearby Weather Stations

Station Location Temp. Windchill Dew Point Humidity Wind Precip. Elev Updated Type